Terminal Aerodrome Forecast
Issued by NWS

Home | Current Version | Previous Version | Text Only | Print | Product List | Glossary On
Versions: 1 2 3 4 5 6 7 8 9 10 11 12
605
FTUS44 KMAF 250520
TAFPEQ
TAF
KPEQ 250520Z 2506/2606 12009KT P6SM FEW100
     FM251600 08011KT P6SM SCT100=

USA.gov is the U.S. government's official web portal to all federal, state and local government web resources and services.